SIA953 WIII-WSSS
Flight info
| Callsign | SIA953 |
|---|---|
| Flight time | 1h 23m |
| Altitude | 41000 |
| Route | DOLT2A DOLTA G579 REPOV REPO2B |
| Aircraft | A359/H-SDE2E3GHIJ1J3J4J5LM1ORWXYZ/LB1D1 |
Departure
| Time | 2026-05-05 08:49 |
|---|---|
| Airport | Soekarno-Hatta International Airport (WIII) |
Arrival
| Time | 2026-05-05 10:12 |
|---|---|
| Airport | Singapore Changi Airport (WSSS) |
| Time | Latitude | Longitude | Altitude | Speed | Heading |
|---|---|---|---|---|---|
| 2026-05-05 08:16 | -6.11616 | 106.66827 | 39 ft | 0 kts | 158° |
| 2026-05-05 08:36 | -6.11613 | 106.66826 | 39 ft | 2 kts | 159° |
| 2026-05-05 08:36 | -6.11589 | 106.66818 | 39 ft | 4 kts | 165° |
| 2026-05-05 08:37 | -6.11564 | 106.66810 | 39 ft | 4 kts | 147° |
| 2026-05-05 08:37 | -6.11545 | 106.66792 | 39 ft | 4 kts | 136° |
| 2026-05-05 08:37 | -6.11531 | 106.66778 | 39 ft | 4 kts | 158° |
| 2026-05-05 08:37 | -6.11518 | 106.66781 | 39 ft | 3 kts | 246° |
| 2026-05-05 08:38 | -6.11510 | 106.66801 | 39 ft | 4 kts | 248° |
| 2026-05-05 08:38 | -6.11500 | 106.66826 | 39 ft | 4 kts | 248° |
| 2026-05-05 08:38 | -6.11494 | 106.66841 | 39 ft | 0 kts | 248° |
| 2026-05-05 08:41 | -6.11506 | 106.66810 | 39 ft | 12 kts | 248° |
| 2026-05-05 08:41 | -6.11552 | 106.66696 | 39 ft | 20 kts | 248° |
| 2026-05-05 08:42 | -6.11606 | 106.66562 | 39 ft | 21 kts | 248° |
| 2026-05-05 08:42 | -6.11632 | 106.66422 | 39 ft | 19 kts | 303° |
| 2026-05-05 08:42 | -6.11517 | 106.66360 | 39 ft | 20 kts | 338° |
| 2026-05-05 08:42 | -6.11386 | 106.66305 | 38 ft | 21 kts | 324° |
| 2026-05-05 08:43 | -6.11381 | 106.66180 | 38 ft | 19 kts | 248° |
| 2026-05-05 08:43 | -6.11432 | 106.66050 | 37 ft | 21 kts | 248° |
| 2026-05-05 08:43 | -6.11490 | 106.65905 | 34 ft | 24 kts | 248° |
| 2026-05-05 08:43 | -6.11553 | 106.65746 | 35 ft | 25 kts | 249° |
| 2026-05-05 08:44 | -6.11617 | 106.65582 | 35 ft | 26 kts | 247° |
| 2026-05-05 08:44 | -6.11684 | 106.65418 | 39 ft | 25 kts | 248° |
| 2026-05-05 08:44 | -6.11748 | 106.65257 | 41 ft | 25 kts | 248° |
| 2026-05-05 08:44 | -6.11813 | 106.65093 | 42 ft | 26 kts | 249° |
| 2026-05-05 08:45 | -6.11880 | 106.64925 | 43 ft | 26 kts | 248° |
| 2026-05-05 08:45 | -6.11950 | 106.64751 | 44 ft | 27 kts | 248° |
| 2026-05-05 08:45 | -6.12021 | 106.64574 | 44 ft | 28 kts | 248° |
| 2026-05-05 08:45 | -6.12095 | 106.64388 | 43 ft | 29 kts | 248° |
| 2026-05-05 08:46 | -6.12171 | 106.64198 | 43 ft | 30 kts | 248° |
| 2026-05-05 08:46 | -6.12247 | 106.64005 | 46 ft | 29 kts | 250° |
| 2026-05-05 08:46 | -6.12248 | 106.63927 | 48 ft | 7 kts | 289° |
| 2026-05-05 08:46 | -6.12233 | 106.63907 | 48 ft | 0 kts | 315° |
| 2026-05-05 08:47 | -6.12231 | 106.63906 | 48 ft | 3 kts | 315° |
| 2026-05-05 08:48 | -6.12195 | 106.63904 | 48 ft | 8 kts | 4° |
| 2026-05-05 08:48 | -6.12107 | 106.63926 | 45 ft | 16 kts | 31° |
| 2026-05-05 08:48 | -6.12053 | 106.64008 | 43 ft | 13 kts | 73° |
| 2026-05-05 08:48 | -6.12020 | 106.64096 | 44 ft | 14 kts | 68° |
| 2026-05-05 08:49 | -6.11960 | 106.64246 | 42 ft | 44 kts | 68° |
| 2026-05-05 08:49 | -6.11751 | 106.64766 | 47 ft | 114 kts | 68° |
| 2026-05-05 08:49 | -6.11383 | 106.65684 | 41 ft | 171 kts | 68° |
| 2026-05-05 08:49 | -6.10935 | 106.66801 | 730 ft | 169 kts | 68° |
| 2026-05-05 08:50 | -6.10462 | 106.67876 | 1475 ft | 173 kts | 59° |
| 2026-05-05 08:50 | -6.09473 | 106.68702 | 1842 ft | 201 kts | 29° |
| 2026-05-05 08:50 | -6.08162 | 106.69406 | 2151 ft | 222 kts | 28° |
| 2026-05-05 08:50 | -6.06748 | 106.70189 | 2389 ft | 243 kts | 29° |
| 2026-05-05 08:51 | -6.05096 | 106.70783 | 2670 ft | 261 kts | 8° |
| 2026-05-05 08:51 | -6.03297 | 106.70587 | 3223 ft | 264 kts | 336° |
| 2026-05-05 08:51 | -6.01757 | 106.69588 | 3869 ft | 266 kts | 320° |
| 2026-05-05 08:51 | -6.00335 | 106.68386 | 4480 ft | 269 kts | 318° |
| 2026-05-05 08:52 | -5.98916 | 106.67146 | 5084 ft | 272 kts | 318° |
| 2026-05-05 08:52 | -5.97479 | 106.65891 | 5678 ft | 275 kts | 318° |
| 2026-05-05 08:52 | -5.96027 | 106.64627 | 6258 ft | 278 kts | 319° |
| 2026-05-05 08:52 | -5.94559 | 106.63351 | 6825 ft | 280 kts | 319° |
| 2026-05-05 08:53 | -5.93074 | 106.62063 | 7382 ft | 283 kts | 319° |
| 2026-05-05 08:53 | -5.91574 | 106.60763 | 7927 ft | 286 kts | 319° |
| 2026-05-05 08:53 | -5.90061 | 106.59452 | 8465 ft | 289 kts | 319° |
| 2026-05-05 08:53 | -5.88533 | 106.58128 | 8996 ft | 291 kts | 319° |
| 2026-05-05 08:54 | -5.86990 | 106.56793 | 9519 ft | 294 kts | 319° |
| 2026-05-05 08:54 | -5.85433 | 106.55445 | 10035 ft | 297 kts | 319° |
| 2026-05-05 08:54 | -5.83856 | 106.54079 | 10423 ft | 304 kts | 319° |
| 2026-05-05 08:54 | -5.82216 | 106.52659 | 10620 ft | 318 kts | 319° |
| 2026-05-05 08:55 | -5.80530 | 106.51199 | 10795 ft | 330 kts | 319° |
| 2026-05-05 08:55 | -5.78759 | 106.49666 | 10965 ft | 342 kts | 319° |
| 2026-05-05 08:55 | -5.76927 | 106.48081 | 11126 ft | 353 kts | 319° |
| 2026-05-05 08:55 | -5.75042 | 106.46450 | 11331 ft | 361 kts | 319° |
| 2026-05-05 08:56 | -5.73129 | 106.44795 | 11660 ft | 365 kts | 319° |
| 2026-05-05 08:56 | -5.71198 | 106.43125 | 12022 ft | 367 kts | 319° |
| 2026-05-05 08:56 | -5.69259 | 106.41448 | 12375 ft | 369 kts | 319° |
| 2026-05-05 08:56 | -5.67304 | 106.39757 | 12713 ft | 372 kts | 319° |
| 2026-05-05 08:57 | -5.65340 | 106.38059 | 13040 ft | 374 kts | 319° |
| 2026-05-05 08:57 | -5.63364 | 106.36349 | 13355 ft | 376 kts | 319° |
| 2026-05-05 08:57 | -5.61377 | 106.34632 | 13666 ft | 378 kts | 319° |
| 2026-05-05 08:57 | -5.59380 | 106.32904 | 13964 ft | 380 kts | 319° |
| 2026-05-05 08:58 | -5.57371 | 106.31168 | 14255 ft | 382 kts | 319° |
| 2026-05-05 08:58 | -5.55354 | 106.29424 | 14541 ft | 384 kts | 319° |
| 2026-05-05 08:58 | -5.53322 | 106.27667 | 14822 ft | 386 kts | 319° |
| 2026-05-05 08:58 | -5.51284 | 106.25905 | 15097 ft | 388 kts | 319° |
| 2026-05-05 08:59 | -5.49235 | 106.24135 | 15366 ft | 390 kts | 319° |
| 2026-05-05 08:59 | -5.47177 | 106.22356 | 15630 ft | 391 kts | 319° |
| 2026-05-05 08:59 | -5.45109 | 106.20569 | 15886 ft | 393 kts | 319° |
| 2026-05-05 08:59 | -5.43032 | 106.18774 | 16136 ft | 395 kts | 319° |
| 2026-05-05 09:00 | -5.40946 | 106.16972 | 16381 ft | 397 kts | 319° |
| 2026-05-05 09:00 | -5.38851 | 106.15162 | 16620 ft | 398 kts | 319° |
| 2026-05-05 09:00 | -5.36747 | 106.13344 | 16854 ft | 400 kts | 319° |
| 2026-05-05 09:00 | -5.34633 | 106.11519 | 17080 ft | 402 kts | 319° |
| 2026-05-05 09:01 | -5.32512 | 106.09687 | 17302 ft | 403 kts | 319° |
| 2026-05-05 09:01 | -5.30382 | 106.07848 | 17518 ft | 405 kts | 319° |
| 2026-05-05 09:01 | -5.28271 | 106.06025 | 17725 ft | 406 kts | 319° |
| 2026-05-05 09:01 | -5.26098 | 106.04148 | 17931 ft | 408 kts | 319° |
| 2026-05-05 09:02 | -5.23973 | 106.02314 | 18128 ft | 409 kts | 319° |
| 2026-05-05 09:02 | -5.21811 | 106.00449 | 18322 ft | 410 kts | 319° |
| 2026-05-05 09:02 | -5.19644 | 105.98578 | 18511 ft | 412 kts | 319° |
| 2026-05-05 09:02 | -5.17470 | 105.96702 | 18695 ft | 413 kts | 319° |
| 2026-05-05 09:03 | -5.15286 | 105.94817 | 18874 ft | 415 kts | 319° |
| 2026-05-05 09:03 | -5.13065 | 105.92966 | 19041 ft | 416 kts | 322° |
| 2026-05-05 09:03 | -5.10665 | 105.91336 | 19209 ft | 417 kts | 327° |
| 2026-05-05 09:03 | -5.08173 | 105.89831 | 19375 ft | 419 kts | 329° |
| 2026-05-05 09:04 | -5.05634 | 105.88390 | 19537 ft | 420 kts | 330° |
| 2026-05-05 09:04 | -5.03073 | 105.86970 | 19694 ft | 421 kts | 330° |
| 2026-05-05 09:04 | -5.00503 | 105.85547 | 19847 ft | 422 kts | 330° |
| 2026-05-05 09:04 | -4.97929 | 105.84114 | 19996 ft | 423 kts | 330° |
| 2026-05-05 09:05 | -4.95356 | 105.82668 | 20141 ft | 425 kts | 330° |
| 2026-05-05 09:05 | -4.92779 | 105.81210 | 20282 ft | 426 kts | 330° |
| 2026-05-05 09:05 | -4.90199 | 105.79743 | 20420 ft | 427 kts | 330° |
| 2026-05-05 09:05 | -4.87617 | 105.78272 | 20554 ft | 428 kts | 330° |
| 2026-05-05 09:06 | -4.85024 | 105.76794 | 20684 ft | 429 kts | 330° |
| 2026-05-05 09:06 | -4.82427 | 105.75314 | 20812 ft | 430 kts | 330° |
| 2026-05-05 09:06 | -4.79827 | 105.73832 | 20937 ft | 431 kts | 330° |
| 2026-05-05 09:06 | -4.77218 | 105.72346 | 21059 ft | 432 kts | 330° |
| 2026-05-05 09:07 | -4.74603 | 105.70857 | 21177 ft | 432 kts | 330° |
| 2026-05-05 09:07 | -4.71986 | 105.69368 | 21291 ft | 433 kts | 330° |
| 2026-05-05 09:07 | -4.69395 | 105.67893 | 21400 ft | 434 kts | 330° |
| 2026-05-05 09:07 | -4.66730 | 105.66377 | 21512 ft | 435 kts | 330° |
| 2026-05-05 09:08 | -4.64096 | 105.64878 | 21616 ft | 436 kts | 330° |
| 2026-05-05 09:08 | -4.61456 | 105.63376 | 21719 ft | 437 kts | 330° |
| 2026-05-05 09:08 | -4.58845 | 105.61891 | 21816 ft | 438 kts | 330° |
| 2026-05-05 09:08 | -4.56196 | 105.60384 | 21917 ft | 438 kts | 330° |
| 2026-05-05 09:09 | -4.53543 | 105.58875 | 22012 ft | 439 kts | 330° |
| 2026-05-05 09:09 | -4.50880 | 105.57360 | 22104 ft | 440 kts | 330° |
| 2026-05-05 09:09 | -4.48217 | 105.55846 | 22195 ft | 440 kts | 330° |
| 2026-05-05 09:09 | -4.45553 | 105.54331 | 22284 ft | 441 kts | 330° |
| 2026-05-05 09:10 | -4.42876 | 105.52809 | 22369 ft | 442 kts | 330° |
| 2026-05-05 09:10 | -4.40200 | 105.51287 | 22451 ft | 442 kts | 330° |
| 2026-05-05 09:10 | -4.37520 | 105.49763 | 22531 ft | 443 kts | 330° |
| 2026-05-05 09:10 | -4.34838 | 105.48238 | 22608 ft | 444 kts | 330° |
| 2026-05-05 09:11 | -4.32149 | 105.46710 | 22684 ft | 444 kts | 330° |
| 2026-05-05 09:11 | -4.29457 | 105.45180 | 22760 ft | 445 kts | 330° |
| 2026-05-05 09:11 | -4.26763 | 105.43649 | 22832 ft | 445 kts | 330° |
| 2026-05-05 09:11 | -4.24066 | 105.42116 | 22901 ft | 446 kts | 330° |
| 2026-05-05 09:12 | -4.21366 | 105.40582 | 22972 ft | 447 kts | 330° |
| 2026-05-05 09:12 | -4.18662 | 105.39046 | 23036 ft | 447 kts | 330° |
| 2026-05-05 09:12 | -4.15954 | 105.37507 | 23101 ft | 448 kts | 330° |
| 2026-05-05 09:12 | -4.13243 | 105.35967 | 23164 ft | 448 kts | 330° |
| 2026-05-05 09:13 | -4.10529 | 105.34426 | 23227 ft | 449 kts | 330° |
| 2026-05-05 09:13 | -4.07850 | 105.32904 | 23285 ft | 449 kts | 330° |
| 2026-05-05 09:13 | -4.05130 | 105.31359 | 23344 ft | 450 kts | 330° |
| 2026-05-05 09:13 | -4.02407 | 105.29813 | 23402 ft | 450 kts | 330° |
| 2026-05-05 09:14 | -3.99683 | 105.28265 | 23461 ft | 451 kts | 330° |
| 2026-05-05 09:14 | -3.96956 | 105.26717 | 23514 ft | 451 kts | 330° |
| 2026-05-05 09:14 | -3.94226 | 105.25167 | 23567 ft | 451 kts | 330° |
| 2026-05-05 09:14 | -3.91491 | 105.23615 | 23618 ft | 452 kts | 330° |
| 2026-05-05 09:15 | -3.88752 | 105.22070 | 23670 ft | 452 kts | 330° |
| 2026-05-05 09:15 | -3.86006 | 105.20523 | 23719 ft | 453 kts | 330° |
| 2026-05-05 09:15 | -3.83259 | 105.18977 | 23767 ft | 453 kts | 330° |
| 2026-05-05 09:15 | -3.80510 | 105.17431 | 23816 ft | 453 kts | 330° |
| 2026-05-05 09:16 | -3.77764 | 105.15885 | 24095 ft | 452 kts | 330° |
| 2026-05-05 09:16 | -3.75034 | 105.14349 | 24581 ft | 448 kts | 330° |
| 2026-05-05 09:16 | -3.72333 | 105.12829 | 25160 ft | 442 kts | 330° |
| 2026-05-05 09:16 | -3.69669 | 105.11329 | 25742 ft | 436 kts | 330° |
| 2026-05-05 09:17 | -3.67040 | 105.09850 | 26323 ft | 431 kts | 330° |
| 2026-05-05 09:17 | -3.65315 | 105.08879 | 26688 ft | 428 kts | 330° |
| 2026-05-05 09:17 | -3.62726 | 105.07422 | 27197 ft | 425 kts | 330° |
| 2026-05-05 09:17 | -3.59283 | 105.05484 | 27762 ft | 425 kts | 330° |
| 2026-05-05 09:18 | -3.57577 | 105.04523 | 27995 ft | 426 kts | 330° |
| 2026-05-05 09:18 | -3.54991 | 105.03068 | 28346 ft | 427 kts | 330° |
| 2026-05-05 09:18 | -3.52403 | 105.01611 | 28696 ft | 427 kts | 330° |
| 2026-05-05 09:18 | -3.49808 | 105.00152 | 29047 ft | 428 kts | 330° |
| 2026-05-05 09:19 | -3.47212 | 104.98691 | 29398 ft | 428 kts | 330° |
| 2026-05-05 09:19 | -3.44618 | 104.97232 | 29749 ft | 428 kts | 330° |
| 2026-05-05 09:19 | -3.42022 | 104.95772 | 30086 ft | 428 kts | 330° |
| 2026-05-05 09:19 | -3.38584 | 104.93838 | 30486 ft | 429 kts | 330° |
| 2026-05-05 09:20 | -3.36827 | 104.92850 | 30689 ft | 429 kts | 330° |
| 2026-05-05 09:20 | -3.34285 | 104.91420 | 30983 ft | 429 kts | 330° |
| 2026-05-05 09:20 | -3.32594 | 104.90469 | 31179 ft | 429 kts | 330° |
| 2026-05-05 09:20 | -3.30152 | 104.89096 | 31462 ft | 428 kts | 330° |
| 2026-05-05 09:21 | -3.27552 | 104.87633 | 31763 ft | 428 kts | 330° |
| 2026-05-05 09:21 | -3.24995 | 104.86196 | 32061 ft | 427 kts | 330° |
| 2026-05-05 09:21 | -3.22404 | 104.84739 | 32362 ft | 426 kts | 330° |
| 2026-05-05 09:21 | -3.19824 | 104.83288 | 32664 ft | 425 kts | 330° |
| 2026-05-05 09:22 | -3.17248 | 104.81840 | 32904 ft | 425 kts | 330° |
| 2026-05-05 09:22 | -3.14673 | 104.80392 | 33152 ft | 425 kts | 330° |
| 2026-05-05 09:22 | -3.12094 | 104.78943 | 33362 ft | 425 kts | 330° |
| 2026-05-05 09:23 | -3.06892 | 104.76019 | 33532 ft | 433 kts | 330° |
| 2026-05-05 09:23 | -3.01597 | 104.73042 | 33673 ft | 440 kts | 330° |
| 2026-05-05 09:24 | -2.96221 | 104.70021 | 33808 ft | 447 kts | 330° |
| 2026-05-05 09:24 | -2.90752 | 104.66973 | 33929 ft | 453 kts | 332° |
| 2026-05-05 09:25 | -2.84850 | 104.64816 | 34037 ft | 459 kts | 346° |
| 2026-05-05 09:25 | -2.78561 | 104.63490 | 34149 ft | 465 kts | 349° |
| 2026-05-05 09:26 | -2.72164 | 104.62307 | 34253 ft | 470 kts | 349° |
| 2026-05-05 09:26 | -2.65711 | 104.61121 | 34509 ft | 471 kts | 349° |
| 2026-05-05 09:26 | -2.62498 | 104.60523 | 34758 ft | 468 kts | 349° |
| 2026-05-05 09:27 | -2.59303 | 104.59923 | 34996 ft | 466 kts | 349° |
| 2026-05-05 09:27 | -2.56120 | 104.59322 | 35175 ft | 465 kts | 349° |
| 2026-05-05 09:27 | -2.52937 | 104.58721 | 35351 ft | 464 kts | 349° |
| 2026-05-05 09:27 | -2.49768 | 104.58121 | 35525 ft | 463 kts | 349° |
| 2026-05-05 09:28 | -2.46603 | 104.57522 | 35700 ft | 462 kts | 349° |
| 2026-05-05 09:28 | -2.43448 | 104.56926 | 35875 ft | 461 kts | 349° |
| 2026-05-05 09:28 | -2.40299 | 104.56330 | 36050 ft | 459 kts | 349° |
| 2026-05-05 09:28 | -2.37165 | 104.55738 | 36224 ft | 458 kts | 349° |
| 2026-05-05 09:29 | -2.34039 | 104.55147 | 36399 ft | 456 kts | 349° |
| 2026-05-05 09:29 | -2.30925 | 104.54559 | 36574 ft | 454 kts | 349° |
| 2026-05-05 09:29 | -2.27827 | 104.53974 | 36750 ft | 452 kts | 349° |
| 2026-05-05 09:29 | -2.24742 | 104.53391 | 36925 ft | 450 kts | 349° |
| 2026-05-05 09:30 | -2.21670 | 104.52811 | 37100 ft | 448 kts | 349° |
| 2026-05-05 09:30 | -2.18613 | 104.52233 | 37275 ft | 446 kts | 349° |
| 2026-05-05 09:30 | -2.15573 | 104.51659 | 37450 ft | 443 kts | 349° |
| 2026-05-05 09:30 | -2.12587 | 104.51095 | 37624 ft | 441 kts | 349° |
| 2026-05-05 09:31 | -2.09582 | 104.50528 | 37798 ft | 438 kts | 349° |
| 2026-05-05 09:31 | -2.06596 | 104.49963 | 37973 ft | 435 kts | 349° |
| 2026-05-05 09:31 | -2.03629 | 104.49403 | 38162 ft | 432 kts | 349° |
| 2026-05-05 09:31 | -2.00693 | 104.48849 | 38406 ft | 427 kts | 349° |
| 2026-05-05 09:32 | -1.97783 | 104.48299 | 38581 ft | 424 kts | 349° |
| 2026-05-05 09:32 | -1.94888 | 104.47753 | 38694 ft | 422 kts | 349° |
| 2026-05-05 09:32 | -1.92002 | 104.47208 | 38769 ft | 421 kts | 349° |
| 2026-05-05 09:33 | -1.86244 | 104.46120 | 38869 ft | 421 kts | 349° |
| 2026-05-05 09:33 | -1.80485 | 104.45033 | 38936 ft | 421 kts | 349° |
| 2026-05-05 09:34 | -1.74721 | 104.43944 | 38993 ft | 422 kts | 349° |
| 2026-05-05 09:34 | -1.68956 | 104.42856 | 39043 ft | 422 kts | 349° |
| 2026-05-05 09:35 | -1.63182 | 104.41766 | 39094 ft | 422 kts | 349° |
| 2026-05-05 09:35 | -1.55258 | 104.40271 | 39155 ft | 423 kts | 349° |
| 2026-05-05 09:36 | -1.51944 | 104.39645 | 39180 ft | 423 kts | 349° |
| 2026-05-05 09:36 | -1.47589 | 104.38823 | 39211 ft | 423 kts | 349° |
| 2026-05-05 09:37 | -1.41800 | 104.37731 | 39247 ft | 424 kts | 349° |
| 2026-05-05 09:37 | -1.35996 | 104.36635 | 39238 ft | 425 kts | 349° |
| 2026-05-05 09:38 | -1.30215 | 104.35544 | 39253 ft | 426 kts | 349° |
| 2026-05-05 09:38 | -1.24314 | 104.34431 | 38952 ft | 436 kts | 349° |
| 2026-05-05 09:39 | -1.21292 | 104.33860 | 38513 ft | 448 kts | 349° |
| 2026-05-05 09:39 | -1.18184 | 104.33273 | 38069 ft | 460 kts | 349° |
| 2026-05-05 09:39 | -1.15038 | 104.32680 | 37631 ft | 472 kts | 349° |
| 2026-05-05 09:39 | -1.11767 | 104.32062 | 37185 ft | 484 kts | 349° |
| 2026-05-05 09:40 | -1.08415 | 104.31430 | 36735 ft | 496 kts | 349° |
| 2026-05-05 09:40 | -1.04985 | 104.30783 | 36273 ft | 508 kts | 349° |
| 2026-05-05 09:40 | -1.01471 | 104.30120 | 35789 ft | 520 kts | 349° |
| 2026-05-05 09:40 | -0.97880 | 104.29443 | 35286 ft | 531 kts | 349° |
| 2026-05-05 09:41 | -0.94212 | 104.28751 | 34755 ft | 542 kts | 349° |
| 2026-05-05 09:41 | -0.90488 | 104.28049 | 34138 ft | 547 kts | 349° |
| 2026-05-05 09:41 | -0.86739 | 104.27342 | 33282 ft | 549 kts | 349° |
| 2026-05-05 09:41 | -0.82991 | 104.26635 | 32521 ft | 546 kts | 349° |
| 2026-05-05 09:42 | -0.79285 | 104.25936 | 32115 ft | 538 kts | 349° |
| 2026-05-05 09:42 | -0.75636 | 104.25248 | 32009 ft | 529 kts | 349° |
| 2026-05-05 09:42 | -0.68474 | 104.23898 | 32002 ft | 521 kts | 349° |
| 2026-05-05 09:43 | -0.61354 | 104.22554 | 32000 ft | 521 kts | 349° |
| 2026-05-05 09:43 | -0.57774 | 104.21879 | 31797 ft | 527 kts | 349° |
| 2026-05-05 09:43 | -0.54146 | 104.21190 | 31540 ft | 535 kts | 348° |
| 2026-05-05 09:44 | -0.50476 | 104.20461 | 31282 ft | 541 kts | 348° |
| 2026-05-05 09:44 | -0.46765 | 104.19717 | 31024 ft | 545 kts | 348° |
| 2026-05-05 09:44 | -0.43046 | 104.18974 | 30771 ft | 545 kts | 348° |
| 2026-05-05 09:44 | -0.39339 | 104.18235 | 30521 ft | 542 kts | 348° |
| 2026-05-05 09:45 | -0.35665 | 104.17504 | 30062 ft | 533 kts | 348° |
| 2026-05-05 09:45 | -0.32053 | 104.16786 | 29448 ft | 526 kts | 348° |
| 2026-05-05 09:45 | -0.28490 | 104.16078 | 28803 ft | 519 kts | 348° |
| 2026-05-05 09:45 | -0.24968 | 104.15379 | 28170 ft | 512 kts | 348° |
| 2026-05-05 09:46 | -0.21494 | 104.14689 | 27548 ft | 506 kts | 348° |
| 2026-05-05 09:46 | -0.18063 | 104.14008 | 26934 ft | 499 kts | 348° |
| 2026-05-05 09:46 | -0.14677 | 104.13336 | 26325 ft | 493 kts | 348° |
| 2026-05-05 09:46 | -0.11334 | 104.12673 | 25723 ft | 487 kts | 348° |
| 2026-05-05 09:47 | -0.08073 | 104.12025 | 25135 ft | 481 kts | 348° |
| 2026-05-05 09:47 | -0.04814 | 104.11378 | 24540 ft | 475 kts | 348° |
| 2026-05-05 09:47 | -0.01590 | 104.10739 | 23948 ft | 469 kts | 348° |
| 2026-05-05 09:47 | 0.01592 | 104.10107 | 23356 ft | 464 kts | 348° |
| 2026-05-05 09:48 | 0.04730 | 104.09484 | 22981 ft | 453 kts | 348° |
| 2026-05-05 09:48 | 0.07762 | 104.08882 | 22865 ft | 436 kts | 348° |
| 2026-05-05 09:48 | 0.10685 | 104.08303 | 22726 ft | 421 kts | 348° |
| 2026-05-05 09:48 | 0.13513 | 104.07741 | 22547 ft | 407 kts | 348° |
| 2026-05-05 09:49 | 0.16252 | 104.07198 | 22366 ft | 395 kts | 348° |
| 2026-05-05 09:49 | 0.18904 | 104.06671 | 22190 ft | 383 kts | 348° |
| 2026-05-05 09:49 | 0.21477 | 104.06161 | 22019 ft | 371 kts | 348° |
| 2026-05-05 09:49 | 0.23994 | 104.05661 | 21595 ft | 368 kts | 348° |
| 2026-05-05 09:50 | 0.26499 | 104.05164 | 21177 ft | 365 kts | 348° |
| 2026-05-05 09:50 | 0.28980 | 104.04675 | 20804 ft | 362 kts | 348° |
| 2026-05-05 09:50 | 0.31450 | 104.04186 | 20494 ft | 363 kts | 348° |
| 2026-05-05 09:50 | 0.33926 | 104.03693 | 20200 ft | 362 kts | 348° |
| 2026-05-05 09:51 | 0.36390 | 104.03203 | 19910 ft | 360 kts | 348° |
| 2026-05-05 09:51 | 0.38845 | 104.02715 | 19621 ft | 358 kts | 348° |
| 2026-05-05 09:51 | 0.41284 | 104.02231 | 19333 ft | 356 kts | 348° |
| 2026-05-05 09:51 | 0.43709 | 104.01750 | 19047 ft | 354 kts | 348° |
| 2026-05-05 09:52 | 0.46119 | 104.01272 | 18763 ft | 352 kts | 348° |
| 2026-05-05 09:52 | 0.48487 | 104.00802 | 18483 ft | 351 kts | 348° |
| 2026-05-05 09:52 | 0.50873 | 104.00329 | 18202 ft | 349 kts | 348° |
| 2026-05-05 09:52 | 0.53247 | 103.99859 | 17922 ft | 347 kts | 348° |
| 2026-05-05 09:53 | 0.55610 | 103.99390 | 17643 ft | 345 kts | 348° |
| 2026-05-05 09:53 | 0.57961 | 103.98924 | 17366 ft | 344 kts | 348° |
| 2026-05-05 09:53 | 0.60298 | 103.98460 | 17113 ft | 340 kts | 348° |
| 2026-05-05 09:53 | 0.62582 | 103.98008 | 16956 ft | 329 kts | 348° |
| 2026-05-05 09:54 | 0.64788 | 103.97570 | 16806 ft | 318 kts | 348° |
| 2026-05-05 09:54 | 0.66923 | 103.97147 | 16623 ft | 308 kts | 348° |
| 2026-05-05 09:54 | 0.69013 | 103.96743 | 16302 ft | 304 kts | 349° |
| 2026-05-05 09:54 | 0.71098 | 103.96517 | 16017 ft | 299 kts | 358° |
| 2026-05-05 09:55 | 0.73160 | 103.96609 | 15767 ft | 295 kts | 7° |
| 2026-05-05 09:55 | 0.75167 | 103.97030 | 15377 ft | 295 kts | 17° |
| 2026-05-05 09:55 | 0.77081 | 103.97737 | 15082 ft | 292 kts | 22° |
| 2026-05-05 09:55 | 0.78950 | 103.98528 | 14840 ft | 291 kts | 23° |
| 2026-05-05 09:56 | 0.80806 | 103.99323 | 14606 ft | 290 kts | 23° |
| 2026-05-05 09:56 | 0.82655 | 104.00112 | 14373 ft | 288 kts | 23° |
| 2026-05-05 09:56 | 0.84497 | 104.00895 | 14141 ft | 287 kts | 22° |
| 2026-05-05 09:56 | 0.86335 | 104.01675 | 13909 ft | 286 kts | 22° |
| 2026-05-05 09:57 | 0.88165 | 104.02450 | 13679 ft | 285 kts | 22° |
| 2026-05-05 09:57 | 0.89962 | 104.03210 | 13453 ft | 284 kts | 22° |
| 2026-05-05 09:57 | 0.91776 | 104.03977 | 13224 ft | 282 kts | 22° |
| 2026-05-05 09:57 | 0.93605 | 104.04751 | 12994 ft | 281 kts | 22° |
| 2026-05-05 09:58 | 0.95379 | 104.05501 | 12771 ft | 280 kts | 22° |
| 2026-05-05 09:58 | 0.97171 | 104.06259 | 12585 ft | 279 kts | 22° |
| 2026-05-05 09:58 | 0.98957 | 104.07015 | 12465 ft | 279 kts | 22° |
| 2026-05-05 09:58 | 1.00740 | 104.07769 | 12283 ft | 278 kts | 22° |
| 2026-05-05 09:59 | 1.02515 | 104.08519 | 12064 ft | 277 kts | 22° |
| 2026-05-05 09:59 | 1.04287 | 104.09268 | 11841 ft | 276 kts | 22° |
| 2026-05-05 09:59 | 1.06048 | 104.10013 | 11619 ft | 274 kts | 22° |
| 2026-05-05 09:59 | 1.07804 | 104.10755 | 11399 ft | 273 kts | 22° |
| 2026-05-05 10:00 | 1.09551 | 104.11494 | 11179 ft | 272 kts | 22° |
| 2026-05-05 10:00 | 1.11293 | 104.12231 | 10959 ft | 271 kts | 22° |
| 2026-05-05 10:00 | 1.13028 | 104.12965 | 10742 ft | 270 kts | 22° |
| 2026-05-05 10:00 | 1.14756 | 104.13701 | 10512 ft | 269 kts | 23° |
| 2026-05-05 10:01 | 1.16476 | 104.14435 | 10287 ft | 268 kts | 22° |
| 2026-05-05 10:01 | 1.18190 | 104.15165 | 10069 ft | 267 kts | 22° |
| 2026-05-05 10:01 | 1.19897 | 104.15892 | 9854 ft | 266 kts | 23° |
| 2026-05-05 10:01 | 1.21596 | 104.16615 | 9640 ft | 265 kts | 23° |
| 2026-05-05 10:02 | 1.23293 | 104.17339 | 9426 ft | 264 kts | 23° |
| 2026-05-05 10:02 | 1.24979 | 104.18057 | 9213 ft | 263 kts | 23° |
| 2026-05-05 10:02 | 1.26660 | 104.18774 | 9001 ft | 262 kts | 23° |
| 2026-05-05 10:02 | 1.28334 | 104.19487 | 8791 ft | 261 kts | 23° |
| 2026-05-05 10:03 | 1.30025 | 104.20143 | 8575 ft | 260 kts | 18° |
| 2026-05-05 10:03 | 1.31772 | 104.20595 | 8361 ft | 259 kts | 10° |
| 2026-05-05 10:03 | 1.33556 | 104.20794 | 8151 ft | 258 kts | 1° |
| 2026-05-05 10:03 | 1.35345 | 104.20734 | 7942 ft | 256 kts | 353° |
| 2026-05-05 10:04 | 1.37100 | 104.20445 | 7735 ft | 255 kts | 348° |
| 2026-05-05 10:04 | 1.38834 | 104.20075 | 7529 ft | 254 kts | 347° |
| 2026-05-05 10:04 | 1.40560 | 104.19696 | 7332 ft | 252 kts | 347° |
| 2026-05-05 10:04 | 1.41679 | 104.19452 | 7247 ft | 245 kts | 347° |
| 2026-05-05 10:05 | 1.43845 | 104.18982 | 7093 ft | 231 kts | 347° |
| 2026-05-05 10:05 | 1.44870 | 104.18761 | 7015 ft | 224 kts | 347° |
| 2026-05-05 10:05 | 1.46372 | 104.18437 | 6808 ft | 218 kts | 347° |
| 2026-05-05 10:05 | 1.48328 | 104.18017 | 6484 ft | 216 kts | 347° |
| 2026-05-05 10:06 | 1.49318 | 104.17798 | 6335 ft | 215 kts | 346° |
| 2026-05-05 10:06 | 1.51215 | 104.17228 | 6084 ft | 215 kts | 337° |
| 2026-05-05 10:06 | 1.52057 | 104.16682 | 5874 ft | 214 kts | 314° |
| 2026-05-05 10:06 | 1.52977 | 104.15510 | 5508 ft | 216 kts | 302° |
| 2026-05-05 10:07 | 1.53871 | 104.13736 | 5005 ft | 217 kts | 280° |
| 2026-05-05 10:07 | 1.54005 | 104.12723 | 4729 ft | 220 kts | 273° |
| 2026-05-05 10:07 | 1.54062 | 104.11167 | 4231 ft | 228 kts | 270° |
| 2026-05-05 10:07 | 1.53884 | 104.09574 | 3724 ft | 235 kts | 255° |
| 2026-05-05 10:08 | 1.53392 | 104.08004 | 3312 ft | 237 kts | 250° |
| 2026-05-05 10:08 | 1.52854 | 104.06487 | 3195 ft | 225 kts | 249° |
| 2026-05-05 10:08 | 1.51969 | 104.05293 | 3139 ft | 209 kts | 221° |
| 2026-05-05 10:08 | 1.50842 | 104.04444 | 2909 ft | 203 kts | 207° |
| 2026-05-05 10:09 | 1.49514 | 104.03986 | 2599 ft | 201 kts | 197° |
| 2026-05-05 10:09 | 1.48256 | 104.03436 | 2334 ft | 194 kts | 207° |
| 2026-05-05 10:09 | 1.47061 | 104.02890 | 2060 ft | 182 kts | 202° |
| 2026-05-05 10:09 | 1.45932 | 104.02428 | 1824 ft | 169 kts | 203° |
| 2026-05-05 10:10 | 1.44887 | 104.01978 | 1604 ft | 157 kts | 204° |
| 2026-05-05 10:10 | 1.43928 | 104.01571 | 1405 ft | 144 kts | 203° |
| 2026-05-05 10:10 | 1.43032 | 104.01191 | 1220 ft | 137 kts | 203° |
| 2026-05-05 10:10 | 1.42154 | 104.00817 | 1035 ft | 137 kts | 204° |
| 2026-05-05 10:11 | 1.41276 | 104.00441 | 835 ft | 137 kts | 203° |
| 2026-05-05 10:11 | 1.40401 | 104.00071 | 671 ft | 137 kts | 203° |
| 2026-05-05 10:11 | 1.39521 | 103.99699 | 476 ft | 137 kts | 204° |
| 2026-05-05 10:11 | 1.38647 | 103.99332 | 288 ft | 135 kts | 203° |
| 2026-05-05 10:12 | 1.37776 | 103.98964 | 119 ft | 136 kts | 203° |
| 2026-05-05 10:12 | 1.36925 | 103.98598 | 35 ft | 125 kts | 203° |
| 2026-05-05 10:12 | 1.36226 | 103.98302 | 34 ft | 96 kts | 203° |
| 2026-05-05 10:12 | 1.35736 | 103.98114 | 35 ft | 37 kts | 186° |
| 2026-05-05 10:13 | 1.35590 | 103.98114 | 36 ft | 20 kts | 173° |
| 2026-05-05 10:13 | 1.35446 | 103.98131 | 34 ft | 22 kts | 173° |
| 2026-05-05 10:13 | 1.35306 | 103.98178 | 32 ft | 20 kts | 150° |
| 2026-05-05 10:13 | 1.35182 | 103.98162 | 32 ft | 16 kts | 204° |
| 2026-05-05 10:14 | 1.35071 | 103.98114 | 32 ft | 18 kts | 203° |
| 2026-05-05 10:14 | 1.34944 | 103.98071 | 32 ft | 20 kts | 184° |
| 2026-05-05 10:14 | 1.34833 | 103.98145 | 31 ft | 21 kts | 122° |
| 2026-05-05 10:14 | 1.34804 | 103.98250 | 31 ft | 5 kts | 64° |
| 2026-05-05 10:15 | 1.34817 | 103.98253 | 31 ft | 1 kts | 6° |
| 2026-05-05 10:15 | 1.34834 | 103.98255 | 31 ft | 4 kts | 6° |
| 2026-05-05 10:15 | 1.34866 | 103.98258 | 31 ft | 0 kts | 6° |